Time;durP1;ratioP1;P1;durP2;ratioP2;P2;SDS_P1;SDS_P2;PMS_P1;PMS_P2;Temp;Humidity;BMP_temperature;BMP_pressure;BME280_temperature;BME280_humidity;BME280_pressure;Samples;Min_cycle;Max_cycle;Signal;HPM_P1;HPM_P2
2021/07/12 00:01:14;;;;;;;7.68;4.00;;;16.50;80.10;;;;;;5088708;28;20133;-57
2021/07/12 00:03:41;;;;;;;7.32;3.60;;;16.70;80.10;;;;;;5088086;28;20038;-57
2021/07/12 00:06:09;;;;;;;6.15;3.85;;;16.90;78.30;;;;;;5088486;28;20115;-56
2021/07/12 00:08:36;;;;;;;7.93;4.28;;;17.10;77.40;;;;;;5088640;28;20028;-58
2021/07/12 00:11:04;;;;;;;14.93;4.43;;;17.30;76.80;;;;;;5087682;28;20081;-52
2021/07/12 00:13:31;;;;;;;5.70;3.72;;;17.50;75.60;;;;;;5089008;28;20067;-54
2021/07/12 00:15:59;;;;;;;8.55;4.38;;;17.80;75.00;;;;;;5088352;28;20365;-53
2021/07/12 00:18:26;;;;;;;6.00;3.13;;;17.90;74.30;;;;;;5070549;28;20082;-55
2021/07/12 00:20:53;;;;;;;8.88;4.10;;;18.00;72.60;;;;;;5088555;28;20036;-55
2021/07/12 00:23:21;;;;;;;6.75;3.70;;;18.20;73.00;;;;;;5088448;28;20028;-58
2021/07/12 00:25:48;;;;;;;6.07;3.97;;;18.30;72.20;;;;;;5088666;28;20036;-58
2021/07/12 00:28:16;;;;;;;11.48;4.50;;;18.40;72.10;;;;;;5088218;28;20052;-55
2021/07/12 00:30:43;;;;;;;6.45;3.53;;;18.70;70.60;;;;;;5088239;28;20039;-58
2021/07/12 00:33:11;;;;;;;6.85;3.15;;;18.80;70.00;;;;;;5088446;28;20036;-56
2021/07/12 00:35:38;;;;;;;7.07;3.55;;;18.80;70.50;;;;;;5088707;28;20024;-57
2021/07/12 00:38:06;;;;;;;8.00;3.70;;;18.90;69.70;;;;;;5088968;28;20024;-58
2021/07/12 00:40:33;;;;;;;6.78;3.63;;;18.90;69.00;;;;;;5086809;28;20364;-55
2021/07/12 00:43:02;;;;;;;5.25;3.03;;;18.90;69.50;;;;;;5088109;28;20399;-52
2021/07/12 00:45:31;;;;;;;7.68;3.33;;;18.70;70.10;;;;;;5088135;28;20107;-52
2021/07/12 00:47:59;;;;;;;4.15;3.25;;;18.80;70.60;;;;;;5088408;28;20123;-48
2021/07/12 00:50:31;;;;;;;4.90;3.38;;;18.90;70.50;;;;;;5088079;28;20063;-50
2021/07/12 00:52:59;;;;;;;5.50;3.53;;;19.00;70.10;;;;;;5087739;28;20028;-51
2021/07/12 00:55:31;;;;;;;6.00;3.10;;;19.20;68.80;;;;;;5087897;28;20077;-56
2021/07/12 00:58:00;;;;;;;7.38;3.70;;;19.10;68.30;;;;;;5087994;28;20076;-57
2021/07/12 01:00:29;;;;;;;4.93;2.95;;;19.00;68.30;;;;;;5087654;28;20047;-55
2021/07/12 01:02:57;;;;;;;8.73;3.22;;;18.80;70.30;;;;;;5086445;28;20119;-48
2021/07/12 01:05:29;;;;;;;11.07;3.92;;;18.70;69.60;;;;;;5088223;28;20497;-59
2021/07/12 01:07:57;;;;;;;4.80;3.35;;;18.60;70.00;;;;;;5087983;28;20078;-57
2021/07/12 01:10:25;;;;;;;5.93;3.33;;;18.40;69.90;;;;;;5088101;28;20175;-58
2021/07/12 01:13:09;;;;;;;5.32;3.03;;;18.10;71.30;;;;;;5088069;28;20083;-55
2021/07/12 01:16:02;;;;;;;7.38;3.00;;;18.00;72.50;;;;;;5067864;28;20120;-61
2021/07/12 01:18:38;;;;;;;8.38;3.33;;;17.80;74.30;;;;;;5059591;28;20040;-55
2021/07/12 01:21:41;;;;;;;7.13;3.38;;;17.70;75.40;;;;;;5067899;28;20528;-58
2021/07/12 01:24:38;;;;;;;4.18;2.92;;;17.80;74.90;;;;;;5071206;28;20028;-59
2021/07/12 01:27:20;;;;;;;7.05;3.47;;;17.70;74.50;;;;;;5071083;28;20066;-60
2021/07/12 01:30:19;;;;;;;8.52;3.30;;;17.60;75.50;;;;;;5071467;28;20059;-57
2021/07/12 01:33:10;;;;;;;5.43;3.42;;;17.60;75.90;;;;;;5071519;28;20044;-55
2021/07/12 01:36:05;;;;;;;5.50;3.63;;;17.60;75.90;;;;;;5071629;28;20089;-55
2021/07/12 01:38:49;;;;;;;8.55;3.17;;;17.50;77.00;;;;;;5071081;28;20032;-57
2021/07/12 01:41:36;;;;;;;7.20;3.72;;;17.60;77.90;;;;;;5071730;28;20097;-58
2021/07/12 01:44:11;;;;;;;12.13;5.32;;;17.80;76.50;;;;;;5071057;28;20035;-57
2021/07/12 01:47:00;;;;;;;3.78;3.08;;;17.80;75.50;;;;;;5071181;28;20032;-53
2021/07/12 01:49:33;;;;;;;5.72;3.13;;;17.70;75.70;;;;;;5070936;28;20070;-51
2021/07/12 01:52:23;;;;;;;4.93;3.10;;;17.70;75.70;;;;;;5070763;28;20452;-58
2021/07/12 01:54:56;;;;;;;8.55;3.28;;;17.60;75.70;;;;;;5070846;28;20384;-56
2021/07/12 01:57:28;;;;;;;7.53;3.00;;;17.50;75.20;;;;;;5070923;28;20081;-57
2021/07/12 02:00:13;;;;;;;6.82;3.75;;;17.40;76.10;;;;;;5070983;28;20040;-52
2021/07/12 02:02:45;;;;;;;6.45;3.38;;;17.30;77.30;;;;;;5069340;28;20131;-52
2021/07/12 02:05:18;;;;;;;9.50;3.50;;;17.30;77.30;;;;;;5070965;28;20070;-57
2021/07/12 02:07:47;;;;;;;5.63;3.70;;;17.20;77.70;;;;;;5070971;28;20043;-61
2021/07/12 02:10:18;;;;;;;7.25;3.70;;;17.20;78.60;;;;;;5070397;28;20021;-57
2021/07/12 02:12:49;;;;;;;8.60;3.42;;;17.10;78.90;;;;;;5070144;28;20024;-52
2021/07/12 02:15:17;;;;;;;5.45;3.13;;;17.20;79.10;;;;;;5070684;28;20059;-57
2021/07/12 02:17:47;;;;;;;7.60;3.20;;;17.20;79.90;;;;;;5070545;28;20506;-58
2021/07/12 02:20:16;;;;;;;5.90;3.03;;;17.30;80.30;;;;;;5070022;28;20071;-52
2021/07/12 02:22:44;;;;;;;6.70;3.20;;;17.50;78.50;;;;;;5070273;28;20403;-52
2021/07/12 02:25:16;;;;;;;5.20;3.13;;;17.60;78.30;;;;;;5068762;28;20040;-54
2021/07/12 02:27:44;;;;;;;5.75;3.15;;;17.80;77.30;;;;;;5070157;28;20032;-50
2021/07/12 02:30:12;;;;;;;6.70;3.15;;;17.90;76.00;;;;;;5070176;28;20108;-50
2021/07/12 02:32:41;;;;;;;9.93;3.30;;;17.90;76.50;;;;;;5069344;28;20043;-55
2021/07/12 02:35:12;;;;;;;8.75;2.80;;;17.90;75.50;;;;;;5068920;28;20029;-54
2021/07/12 02:37:42;;;;;;;4.50;2.25;;;17.90;75.40;;;;;;5068169;28;20040;-52
2021/07/12 02:40:12;;;;;;;7.32;3.03;;;17.90;76.00;;;;;;5068384;28;20116;-47
2021/07/12 02:42:42;;;;;;;6.80;3.42;;;17.70;75.90;;;;;;5070501;28;20028;-52
2021/07/12 02:45:10;;;;;;;5.68;2.97;;;17.70;76.30;;;;;;5068025;28;20024;-52
2021/07/12 02:47:39;;;;;;;6.35;2.88;;;17.70;76.90;;;;;;5073414;28;20032;-54
2021/07/12 02:50:09;;;;;;;6.88;2.78;;;17.70;76.80;;;;;;5084470;28;20111;-51
2021/07/12 02:52:59;;;;;;;5.95;2.40;;;17.70;76.40;;;;;;5088627;28;20032;-45
2021/07/12 02:55:26;;;;;;;9.10;2.72;;;17.80;77.20;;;;;;5088194;28;20044;-50
2021/07/12 02:57:54;;;;;;;9.50;2.88;;;17.80;77.00;;;;;;5087671;28;20028;-47
2021/07/12 03:00:22;;;;;;;7.68;2.90;;;17.80;76.90;;;;;;5085207;28;20036;-48
2021/07/12 03:02:49;;;;;;;16.23;4.15;;;17.80;77.10;;;;;;5087531;28;20036;-45
2021/07/12 03:05:17;;;;;;;6.53;2.55;;;17.90;77.50;;;;;;5087674;28;20034;-52
2021/07/12 03:08:05;;;;;;;5.30;2.30;;;17.60;80.40;;;;;;5086784;28;20032;-51
2021/07/12 03:10:46;;;;;;;6.85;2.58;;;17.80;80.50;;;;;;5081962;28;20696;-55
2021/07/12 03:13:22;;;;;;;5.63;2.95;;;17.90;80.00;;;;;;5086319;28;20746;-57
2021/07/12 03:15:50;;;;;;;8.23;2.58;;;18.20;78.30;;;;;;5088248;28;20027;-52
2021/07/12 03:18:42;;;;;;;4.63;1.92;;;18.40;77.40;;;;;;5087636;28;20080;-55
2021/07/12 03:21:09;;;;;;;10.50;2.80;;;18.80;76.20;;;;;;5085116;28;20020;-56
2021/07/12 03:23:42;;;;;;;6.15;2.58;;;19.20;74.90;;;;;;5085029;28;20035;-54
2021/07/12 03:26:11;;;;;;;5.38;2.00;;;19.40;73.40;;;;;;5085722;28;20031;-55
2021/07/12 03:28:40;;;;;;;7.75;2.55;;;19.60;72.10;;;;;;5083240;28;20113;-52
2021/07/12 03:31:10;;;;;;;8.40;2.90;;;19.70;71.50;;;;;;5087076;28;20063;-54
2021/07/12 03:33:39;;;;;;;7.97;2.67;;;20.00;70.30;;;;;;5087704;28;20531;-51
2021/07/12 03:36:10;;;;;;;9.27;3.65;;;20.10;69.80;;;;;;5088106;28;20076;-56
2021/07/12 03:38:39;;;;;;;8.52;3.85;;;20.00;70.10;;;;;;5081721;28;20503;-51
2021/07/12 03:41:09;;;;;;;9.05;3.80;;;20.10;69.40;;;;;;5086675;28;20550;-50
2021/07/12 03:43:40;;;;;;;10.15;3.35;;;20.20;69.50;;;;;;5087859;28;20214;-51
2021/07/12 03:46:09;;;;;;;16.55;4.55;;;20.40;68.50;;;;;;5087587;28;20031;-58
2021/07/12 03:48:39;;;;;;;10.70;3.60;;;20.20;67.20;;;;;;5082589;28;20356;-50
2021/07/12 03:51:08;;;;;;;10.50;3.33;;;20.20;67.90;;;;;;5084924;28;20123;-52
2021/07/12 03:53:36;;;;;;;10.15;3.80;;;20.00;67.20;;;;;;5088013;28;20035;-57
2021/07/12 03:56:07;;;;;;;14.63;4.28;;;19.80;68.00;;;;;;5087733;28;20036;-57
2021/07/12 03:58:35;;;;;;;12.63;4.00;;;19.70;69.10;;;;;;5082652;28;20088;-52
2021/07/12 04:01:03;;;;;;;7.88;3.42;;;19.60;71.20;;;;;;5085890;28;20054;-54
2021/07/12 04:03:30;;;;;;;9.43;3.30;;;19.70;70.50;;;;;;5087699;28;20107;-52
2021/07/12 04:05:58;;;;;;;12.45;4.03;;;19.50;70.80;;;;;;5082846;28;20087;-49
2021/07/12 04:08:26;;;;;;;8.13;3.17;;;19.40;71.90;;;;;;5085120;28;20047;-55
2021/07/12 04:10:56;;;;;;;13.77;3.63;;;19.40;71.10;;;;;;5085738;28;20040;-55
2021/07/12 04:13:24;;;;;;;14.45;3.85;;;19.60;72.10;;;;;;5087089;28;20030;-52
2021/07/12 04:15:52;;;;;;;22.63;4.72;;;19.70;71.10;;;;;;5087539;28;20224;-52
2021/07/12 04:18:19;;;;;;;10.25;3.58;;;19.70;70.20;;;;;;5086098;28;20065;-55
2021/07/12 04:20:48;;;;;;;12.30;3.58;;;19.60;70.10;;;;;;5082883;28;20032;-53
2021/07/12 04:23:18;;;;;;;10.82;3.72;;;19.40;73.10;;;;;;5087048;28;20486;-54
2021/07/12 04:25:45;;;;;;;8.98;4.22;;;19.50;72.20;;;;;;5087410;28;20032;-51
2021/07/12 04:28:13;;;;;;;10.02;3.65;;;19.70;72.90;;;;;;5086522;28;20169;-57
2021/07/12 04:30:40;;;;;;;9.30;3.85;;;19.80;70.90;;;;;;5081356;28;20024;-56
2021/07/12 04:33:07;;;;;;;10.80;3.38;;;19.80;69.90;;;;;;5085198;28;20122;-53
2021/07/12 04:35:35;;;;;;;12.20;3.40;;;19.50;71.40;;;;;;5087728;28;20130;-58
2021/07/12 04:38:02;;;;;;;12.50;3.15;;;19.60;71.30;;;;;;5086808;28;20028;-50
2021/07/12 04:40:30;;;;;;;8.57;3.50;;;19.50;71.90;;;;;;5081293;28;20081;-56
2021/07/12 04:42:57;;;;;;;7.10;2.95;;;19.40;70.10;;;;;;5088550;28;20028;-53
2021/07/12 04:45:27;;;;;;;8.35;3.00;;;19.30;71.10;;;;;;5087044;28;20035;-53
2021/07/12 04:47:55;;;;;;;6.35;2.38;;;19.10;69.40;;;;;;5085886;28;20081;-54
2021/07/12 04:50:22;;;;;;;17.65;4.15;;;19.00;70.60;;;;;;5081871;28;20020;-51
2021/07/12 04:52:52;;;;;;;8.70;2.80;;;18.90;70.90;;;;;;5086296;28;20059;-54
2021/07/12 04:55:20;;;;;;;7.18;3.00;;;18.70;74.40;;;;;;5086963;28;20152;-50
2021/07/12 04:57:47;;;;;;;8.98;3.88;;;18.60;73.30;;;;;;5089065;28;20410;-57
2021/07/12 05:00:15;;;;;;;6.53;2.92;;;18.50;75.30;;;;;;5085407;28;20028;-52
2021/07/12 05:02:43;;;;;;;8.52;3.00;;;18.30;75.70;;;;;;5091006;28;20031;-52
2021/07/12 05:05:12;;;;;;;8.63;3.33;;;18.20;75.30;;;;;;5087956;28;20467;-53
2021/07/12 05:07:40;;;;;;;13.15;3.40;;;18.10;75.80;;;;;;5089485;28;20036;-57
2021/07/12 05:10:09;;;;;;;7.20;2.85;;;18.20;79.00;;;;;;5085473;28;20024;-47
2021/07/12 05:12:37;;;;;;;7.55;3.10;;;18.20;78.80;;;;;;5087939;28;20071;-51
2021/07/12 05:15:06;;;;;;;7.75;2.80;;;18.30;77.40;;;;;;5090670;28;20062;-59
2021/07/12 05:17:35;;;;;;;10.38;4.00;;;18.30;78.80;;;;;;5090697;28;20119;-51
2021/07/12 05:20:03;;;;;;;7.97;2.00;;;18.30;77.80;;;;;;5085048;28;20107;-55
2021/07/12 05:22:31;;;;;;;5.97;2.70;;;18.30;75.60;;;;;;5090771;28;20040;-53
2021/07/12 05:24:58;;;;;;;7.90;2.38;;;18.30;76.90;;;;;;5090270;28;20031;-55
2021/07/12 05:27:26;;;;;;;5.57;2.25;;;18.20;76.90;;;;;;5090369;28;20439;-52
2021/07/12 05:29:53;;;;;;;7.47;2.08;;;18.20;75.80;;;;;;5085108;28;20054;-53
2021/07/12 05:32:20;;;;;;;6.07;2.63;;;18.30;76.10;;;;;;5091375;28;20048;-52
2021/07/12 05:34:48;;;;;;;5.40;2.28;;;18.20;76.50;;;;;;5090565;28;20485;-54
2021/07/12 05:37:15;;;;;;;7.25;2.60;;;18.20;76.90;;;;;;5090095;28;20024;-58
2021/07/12 05:39:43;;;;;;;7.57;2.45;;;18.20;75.60;;;;;;5088869;28;20055;-49
2021/07/12 05:42:11;;;;;;;7.55;2.63;;;18.20;76.00;;;;;;5090814;28;20032;-52
2021/07/12 05:44:38;;;;;;;7.25;3.00;;;18.10;76.60;;;;;;5090761;28;20486;-49
2021/07/12 05:47:06;;;;;;;5.15;2.30;;;18.00;77.60;;;;;;5090897;28;20103;-55
2021/07/12 05:49:33;;;;;;;9.02;2.42;;;18.00;77.20;;;;;;5090848;28;20082;-54
2021/07/12 05:52:01;;;;;;;6.30;2.30;;;18.00;77.00;;;;;;5090856;28;20383;-53
2021/07/12 05:54:28;;;;;;;5.75;1.55;;;17.90;77.10;;;;;;5091447;28;20028;-57
2021/07/12 05:56:56;;;;;;;6.53;2.20;;;17.80;77.60;;;;;;5090594;28;20036;-53
2021/07/12 05:59:23;;;;;;;10.50;2.58;;;17.70;78.20;;;;;;5090987;28;20107;-55
2021/07/12 06:01:51;;;;;;;7.78;2.53;;;17.70;78.40;;;;;;5090854;28;20399;-59
2021/07/12 06:04:18;;;;;;;3.78;1.75;;;17.60;79.10;;;;;;5090969;28;20077;-57
2021/07/12 06:06:46;;;;;;;9.05;2.80;;;17.50;79.50;;;;;;5090713;28;20119;-57
2021/07/12 06:09:13;;;;;;;10.65;3.10;;;17.40;80.10;;;;;;5088677;28;20685;-55
2021/07/12 06:11:41;;;;;;;6.78;2.05;;;17.30;80.20;;;;;;5091041;28;20032;-52
2021/07/12 06:14:09;;;;;;;7.00;2.58;;;17.20;80.90;;;;;;5090649;28;20024;-57
2021/07/12 06:16:36;;;;;;;8.02;2.28;;;17.10;81.10;;;;;;5090649;28;20024;-59
2021/07/12 06:19:04;;;;;;;6.95;2.28;;;17.10;81.80;;;;;;5090881;28;20027;-57
2021/07/12 06:21:32;;;;;;;6.78;2.53;;;17.00;81.90;;;;;;5090819;28;20646;-60
2021/07/12 06:23:59;;;;;;;5.85;2.22;;;17.00;82.10;;;;;;5090043;28;20059;-58
2021/07/12 06:26:27;;;;;;;7.35;2.08;;;16.90;82.50;;;;;;5090386;28;20046;-59
2021/07/12 06:28:54;;;;;;;5.43;1.92;;;16.80;82.90;;;;;;5090212;28;20060;-59
2021/07/12 06:31:21;;;;;;;6.70;2.15;;;16.80;82.80;;;;;;5090567;28;20048;-56
2021/07/12 06:33:49;;;;;;;8.77;2.17;;;16.70;83.10;;;;;;5069968;28;20024;-59
2021/07/12 06:36:16;;;;;;;8.75;2.10;;;16.70;83.20;;;;;;5070163;28;20043;-58
2021/07/12 06:38:43;;;;;;;9.70;2.67;;;16.60;83.50;;;;;;5069697;28;20040;-55
2021/07/12 06:41:11;;;;;;;5.65;1.83;;;16.60;83.80;;;;;;5069940;28;20578;-56
2021/07/12 06:43:38;;;;;;;9.95;2.75;;;16.50;84.30;;;;;;5070113;28;20415;-47
2021/07/12 06:46:05;;;;;;;4.85;1.98;;;16.50;84.50;;;;;;5069893;28;20099;-51
2021/07/12 06:48:33;;;;;;;5.00;2.42;;;16.40;84.70;;;;;;5067744;28;20055;-50
2021/07/12 06:51:00;;;;;;;10.07;2.72;;;16.40;84.90;;;;;;5068811;28;20032;-49
2021/07/12 06:53:28;;;;;;;8.25;2.50;;;16.40;85.30;;;;;;5069288;28;20037;-48
2021/07/12 06:55:55;;;;;;;7.00;1.90;;;16.40;85.40;;;;;;5069461;28;20029;-46
2021/07/12 06:58:23;;;;;;;5.75;2.05;;;16.30;85.50;;;;;;5069714;28;20035;-50
2021/07/12 07:00:50;;;;;;;5.78;2.10;;;16.30;86.00;;;;;;5069342;28;20028;-52
2021/07/12 07:03:17;;;;;;;5.18;2.33;;;16.20;86.10;;;;;;5069297;28;20036;-54
2021/07/12 07:05:45;;;;;;;5.20;2.47;;;16.20;86.20;;;;;;5069131;28;20060;-50
2021/07/12 07:08:14;;;;;;;8.23;1.85;;;16.20;86.30;;;;;;5069342;28;20457;-53
2021/07/12 07:10:42;;;;;;;5.97;2.05;;;16.10;86.60;;;;;;5069035;28;20073;-52
2021/07/12 07:13:10;;;;;;;3.67;1.73;;;16.20;86.60;;;;;;5068522;28;20062;-56
2021/07/12 07:15:37;;;;;;;6.05;2.17;;;16.10;86.80;;;;;;5069586;28;20094;-53
2021/07/12 07:18:05;;;;;;;9.68;2.10;;;16.10;87.00;;;;;;5069235;28;20107;-55
2021/07/12 07:20:32;;;;;;;5.15;2.30;;;16.10;87.10;;;;;;5068643;28;20141;-50
2021/07/12 07:23:04;;;;;;;13.30;3.47;;;16.00;87.20;;;;;;5069459;28;20067;-50
2021/07/12 07:25:32;;;;;;;8.93;2.63;;;16.00;87.30;;;;;;5068867;28;20035;-58
2021/07/12 07:28:01;;;;;;;6.60;2.28;;;16.00;87.40;;;;;;5068693;28;20049;-53
2021/07/12 07:30:29;;;;;;;4.35;1.67;;;16.00;87.50;;;;;;5068898;28;20074;-51
2021/07/12 07:32:56;;;;;;;9.07;2.55;;;16.00;87.60;;;;;;5068800;28;20041;-57
2021/07/12 07:35:24;;;;;;;9.98;2.63;;;16.00;87.70;;;;;;5069120;28;20044;-54
2021/07/12 07:37:51;;;;;;;8.18;2.70;;;15.90;87.80;;;;;;5068842;28;20044;-53
2021/07/12 07:40:20;;;;;;;7.75;2.67;;;16.00;88.00;;;;;;5068951;28;20033;-54
2021/07/12 07:42:48;;;;;;;8.48;2.35;;;15.90;88.20;;;;;;5068809;28;20462;-55
2021/07/12 07:45:16;;;;;;;4.55;1.70;;;15.90;88.20;;;;;;5069068;28;20024;-52
2021/07/12 07:47:46;;;;;;;5.22;2.28;;;15.90;88.20;;;;;;5068136;28;20470;-49
2021/07/12 07:50:18;;;;;;;5.05;1.92;;;15.90;88.30;;;;;;5067908;28;20036;-51
2021/07/12 07:52:46;;;;;;;9.40;2.28;;;15.90;88.30;;;;;;5068865;28;20036;-54
2021/07/12 07:55:13;;;;;;;3.10;1.70;;;15.80;88.30;;;;;;5068798;28;20086;-53
2021/07/12 07:57:42;;;;;;;7.22;2.42;;;15.80;88.30;;;;;;5068798;28;20029;-54
2021/07/12 08:00:13;;;;;;;4.55;2.13;;;15.80;88.50;;;;;;5068886;28;20028;-50
2021/07/12 08:02:42;;;;;;;4.93;2.00;;;15.80;88.50;;;;;;5066898;28;20025;-54
2021/07/12 08:05:11;;;;;;;5.75;2.45;;;15.80;88.60;;;;;;5068368;28;20036;-55
2021/07/12 08:07:40;;;;;;;4.03;2.58;;;15.80;88.60;;;;;;5067805;28;20048;-51
2021/07/12 08:10:13;;;;;;;8.90;2.30;;;15.80;88.70;;;;;;5068633;28;20526;-53
2021/07/12 08:12:41;;;;;;;7.07;2.50;;;15.80;88.70;;;;;;5068593;28;20090;-53
2021/07/12 08:15:11;;;;;;;7.60;1.90;;;15.80;88.90;;;;;;5067317;28;20052;-51
2021/07/12 08:17:40;;;;;;;6.53;2.95;;;15.80;88.90;;;;;;5050419;28;20454;-56
2021/07/12 08:20:13;;;;;;;5.00;2.40;;;15.70;89.00;;;;;;5068988;28;20036;-54
2021/07/12 08:23:04;;;;;;;4.07;2.17;;;15.70;89.00;;;;;;5069499;28;20048;-50
2021/07/12 08:25:31;;;;;;;4.28;2.30;;;15.70;89.20;;;;;;5062642;28;20464;-53
2021/07/12 08:27:59;;;;;;;9.77;3.38;;;15.70;89.20;;;;;;5068105;28;20118;-55
2021/07/12 08:30:26;;;;;;;6.03;2.70;;;15.70;89.40;;;;;;5072144;28;20050;-57
2021/07/12 08:32:54;;;;;;;5.72;3.17;;;15.70;89.40;;;;;;5092280;28;20097;-53
2021/07/12 08:35:24;;;;;;;5.90;3.22;;;15.70;89.40;;;;;;5092623;28;20020;-55
2021/07/12 08:37:52;;;;;;;5.78;2.15;;;15.70;89.50;;;;;;5092537;28;20031;-50
2021/07/12 08:40:22;;;;;;;5.88;3.15;;;15.60;89.30;;;;;;5091425;28;20016;-56
2021/07/12 08:42:59;;;;;;;4.78;2.70;;;15.60;89.40;;;;;;5093407;28;20036;-51
2021/07/12 08:45:28;;;;;;;8.15;2.97;;;15.60;89.40;;;;;;5093153;28;20072;-54
2021/07/12 08:47:56;;;;;;;4.45;2.75;;;15.60;89.40;;;;;;5092816;28;20062;-57
2021/07/12 08:50:26;;;;;;;4.93;2.72;;;15.60;89.50;;;;;;5091643;28;20038;-53
2021/07/12 08:52:54;;;;;;;7.15;3.00;;;15.50;89.40;;;;;;5088032;28;20035;-52
2021/07/12 08:55:23;;;;;;;9.85;4.82;;;15.60;89.80;;;;;;5090862;28;20035;-52
2021/07/12 08:58:05;;;;;;;14.10;6.43;;;15.60;89.80;;;;;;5090537;28;20056;-56
2021/07/12 09:00:40;;;;;;;16.70;8.25;;;15.50;89.70;;;;;;5085989;28;20522;-50
2021/07/12 09:03:24;;;;;;;16.38;8.13;;;15.50;89.70;;;;;;5086788;28;20044;-52
2021/07/12 09:06:04;;;;;;;20.00;10.05;;;15.60;89.80;;;;;;5088961;28;20024;-53
2021/07/12 09:08:37;;;;;;;23.25;11.23;;;15.60;89.90;;;;;;5087317;28;20035;-54
2021/07/12 09:11:13;;;;;;;20.60;10.27;;;15.60;89.90;;;;;;5085898;28;20039;-54
2021/07/12 09:13:54;;;;;;;26.08;12.82;;;15.60;89.90;;;;;;5089145;28;20028;-55
2021/07/12 09:16:28;;;;;;;22.65;12.90;;;15.60;89.60;;;;;;5090116;28;20075;-56
2021/07/12 09:19:25;;;;;;;30.23;14.05;;;15.60;89.80;;;;;;5085832;28;20441;-60
2021/07/12 09:21:58;;;;;;;25.98;13.95;;;15.60;89.80;;;;;;5086709;28;20031;-55
2021/07/12 09:24:30;;;;;;;30.38;15.60;;;15.60;89.70;;;;;;5087403;28;20024;-47
2021/07/12 09:27:03;;;;;;;29.38;16.80;;;15.60;89.70;;;;;;5089958;28;20034;-55
2021/07/12 09:29:37;;;;;;;29.42;16.17;;;15.60;89.80;;;;;;5085651;28;20089;-50
2021/07/12 09:32:07;;;;;;;34.08;17.90;;;15.60;89.50;;;;;;5088427;28;20036;-50
2021/07/12 09:34:34;;;;;;;29.17;17.30;;;15.60;89.70;;;;;;5090488;28;20050;-49
2021/07/12 09:37:02;;;;;;;30.55;16.35;;;15.60;89.70;;;;;;5090205;28;20028;-55
2021/07/12 09:39:42;;;;;;;35.22;17.65;;;15.60;89.40;;;;;;5084591;28;20474;-56
2021/07/12 09:42:19;;;;;;;32.35;16.25;;;15.60;89.90;;;;;;5089230;28;20024;-52
2021/07/12 09:44:53;;;;;;;35.30;17.17;;;15.60;89.60;;;;;;5092000;28;20028;-58
2021/07/12 09:47:25;;;;;;;34.17;18.10;;;15.60;89.70;;;;;;5091894;28;20551;-47
2021/07/12 09:49:58;;;;;;;;;;;15.60;89.70;;;;;;5092108;28;20064;-53
2021/07/12 09:52:26;;;;;;;34.13;18.30;;;15.50;89.60;;;;;;5091474;28;19923;-56
2021/07/12 09:54:53;;;;;;;25.88;15.48;;;15.50;89.50;;;;;;5091639;28;20804;-54
2021/07/12 09:57:24;;;;;;;31.08;17.25;;;15.50;89.40;;;;;;5091625;28;20075;-58
2021/07/12 10:00:03;;;;;;;29.27;17.33;;;15.50;89.60;;;;;;5089835;28;20028;-51
2021/07/12 10:02:40;;;;;;;29.60;16.65;;;15.50;89.60;;;;;;5091517;28;20096;-50
2021/07/12 10:05:14;;;;;;;32.30;17.90;;;15.50;89.60;;;;;;5091677;28;20039;-48
2021/07/12 10:07:44;;;;;;;35.55;17.42;;;15.50;89.80;;;;;;5091046;28;20017;-56
2021/07/12 10:10:15;;;;;;;30.65;16.88;;;15.50;89.50;;;;;;5090533;28;20394;-49
2021/07/12 10:12:44;;;;;;;27.52;16.40;;;15.50;89.60;;;;;;5091163;28;20127;-55
2021/07/12 10:15:13;;;;;;;32.60;16.05;;;15.40;89.70;;;;;;5091135;28;20515;-57
2021/07/12 10:17:45;;;;;;;31.73;16.73;;;15.40;89.70;;;;;;5090973;28;20028;-56
2021/07/12 10:20:14;;;;;;;31.98;16.25;;;15.40;89.70;;;;;;5091172;28;20031;-55
2021/07/12 10:22:42;;;;;;;34.97;17.73;;;15.40;89.90;;;;;;5091323;28;20469;-59
2021/07/12 10:25:13;;;;;;;36.40;17.90;;;15.40;89.80;;;;;;5091158;28;20479;-56
2021/07/12 10:27:53;;;;;;;33.08;16.20;;;15.30;89.90;;;;;;5079823;28;20577;-54
2021/07/12 10:30:42;;;;;;;32.80;16.33;;;15.30;89.90;;;;;;5089326;28;20024;-53
2021/07/12 10:33:11;;;;;;;28.58;16.55;;;15.30;90.00;;;;;;5088669;28;20036;-54
2021/07/12 10:35:48;;;;;;;28.88;16.75;;;15.30;90.00;;;;;;5087679;28;20024;-55
2021/07/12 10:38:29;;;;;;;28.27;15.45;;;15.30;89.90;;;;;;5088828;28;20111;-54
2021/07/12 10:40:58;;;;;;;26.48;14.90;;;15.30;89.90;;;;;;5086250;28;20031;-50
2021/07/12 10:43:46;;;;;;;29.42;15.68;;;15.30;89.90;;;;;;5083505;28;20551;-52
2021/07/12 10:46:28;;;;;;;27.08;14.32;;;15.40;90.00;;;;;;5089235;28;20483;-50
2021/07/12 10:48:58;;;;;;;26.65;15.02;;;15.40;90.00;;;;;;5086073;28;20032;-53
2021/07/12 10:51:32;;;;;;;25.33;15.32;;;15.40;89.80;;;;;;5085199;28;20032;-53
2021/07/12 10:53:59;;;;;;;24.95;14.60;;;15.40;89.90;;;;;;5081620;28;20093;-52
2021/07/12 10:56:43;;;;;;;26.88;14.80;;;15.30;89.80;;;;;;5088299;28;20027;-51
2021/07/12 10:59:25;;;;;;;28.13;14.43;;;15.40;89.70;;;;;;5089156;28;20508;-49
2021/07/12 11:01:53;;;;;;;28.70;14.33;;;15.40;89.80;;;;;;5088133;28;20102;-50
2021/07/12 11:04:41;;;;;;;25.50;14.43;;;15.40;89.80;;;;;;5082770;28;20474;-53
2021/07/12 11:07:16;;;;;;;26.52;14.23;;;15.30;89.70;;;;;;5087813;28;20088;-51
2021/07/12 11:10:00;;;;;;;24.25;13.73;;;15.40;89.50;;;;;;5088736;28;20696;-52
2021/07/12 11:12:32;;;;;;;21.88;12.73;;;15.30;89.90;;;;;;5088787;28;20119;-57
2021/07/12 11:15:17;;;;;;;24.67;13.50;;;15.40;89.90;;;;;;5085486;28;20028;-44
2021/07/12 11:17:55;;;;;;;26.55;13.48;;;15.30;89.90;;;;;;5087187;28;21162;-47
2021/07/12 11:20:44;;;;;;;25.48;13.27;;;15.30;89.80;;;;;;5087122;28;20543;-50
2021/07/12 11:23:37;;;;;;;20.85;12.00;;;15.30;89.70;;;;;;5081682;28;20042;-46
2021/07/12 11:26:04;;;;;;;;;;;15.30;89.70;;;;;;5074297;28;20476;-54
2021/07/12 11:28:49;;;;;;;27.55;13.27;;;15.30;89.80;;;;;;5085565;28;19965;-56
2021/07/12 11:31:56;;;;;;;21.25;11.38;;;15.30;89.80;;;;;;5086973;28;20032;-51
2021/07/12 11:34:27;;;;;;;19.50;11.07;;;15.30;90.00;;;;;;5083143;28;20402;-53
2021/07/12 11:36:56;;;;;;;24.45;12.63;;;15.20;89.90;;;;;;5085931;28;20051;-50
2021/07/12 11:39:27;;;;;;;20.55;12.13;;;15.30;90.00;;;;;;5086048;28;20035;-49
2021/07/12 11:41:56;;;;;;;25.50;13.43;;;15.20;90.00;;;;;;5087708;28;20028;-52
2021/07/12 11:44:23;;;;;;;19.15;11.48;;;15.20;90.00;;;;;;5081450;28;20088;-53
2021/07/12 11:46:51;;;;;;;20.60;11.50;;;15.20;90.00;;;;;;5089818;28;20454;-53
2021/07/12 11:49:21;;;;;;;18.75;11.02;;;15.20;90.00;;;;;;5089303;28;20568;-54
2021/07/12 11:51:57;;;;;;;18.05;11.20;;;15.20;90.00;;;;;;5085116;28;20044;-53
2021/07/12 11:54:26;;;;;;;22.30;12.10;;;15.20;90.00;;;;;;5089405;28;20557;-53
2021/07/12 11:57:02;;;;;;;21.00;11.80;;;15.20;90.00;;;;;;5089487;28;20053;-52
2021/07/12 11:59:35;;;;;;;16.10;10.77;;;15.10;90.10;;;;;;5089362;28;20028;-57
2021/07/12 12:02:08;;;;;;;;;;;15.10;90.10;;;;;;5088302;28;20059;-50
2021/07/12 12:04:59;;;;;;;20.65;11.02;;;15.10;90.10;;;;;;5089544;28;20386;-56
2021/07/12 12:07:28;;;;;;;20.73;11.90;;;15.10;90.10;;;;;;5088906;28;20050;-57
2021/07/12 12:10:07;;;;;;;17.38;10.18;;;15.10;90.20;;;;;;5088902;28;20020;-53
2021/07/12 12:12:45;;;;;;;16.42;10.00;;;15.10;90.20;;;;;;5088280;28;20036;-53
2021/07/12 12:15:14;;;;;;;17.55;10.30;;;15.00;90.10;;;;;;5089537;28;20035;-54
2021/07/12 12:17:56;;;;;;;16.65;9.88;;;15.00;90.50;;;;;;5087740;28;20031;-51
2021/07/12 12:20:34;;;;;;;15.45;10.35;;;15.00;90.10;;;;;;5088566;28;20082;-54
2021/07/12 12:23:12;;;;;;;16.52;10.18;;;15.00;90.10;;;;;;5089118;28;20032;-50
2021/07/12 12:25:44;;;;;;;15.50;8.93;;;15.00;90.10;;;;;;5089117;28;20089;-52
2021/07/12 12:28:23;;;;;;;14.55;9.32;;;15.00;90.20;;;;;;5089096;28;20052;-53
2021/07/12 12:30:52;;;;;;;13.25;8.50;;;14.90;90.10;;;;;;5089121;28;20034;-53
2021/07/12 12:33:25;;;;;;;16.35;8.90;;;14.90;90.10;;;;;;5088996;28;20036;-51
2021/07/12 12:35:58;;;;;;;18.60;9.63;;;14.90;90.20;;;;;;5088469;28;20032;-54
2021/07/12 12:38:24;;;;;;;;;;;14.90;90.20;;;;;;5089380;28;20089;-57
2021/07/12 12:41:17;;;;;;;15.50;9.10;;;14.90;90.20;;;;;;5088704;28;19908;-52
2021/07/12 12:44:05;;;;;;;17.88;8.98;;;14.80;90.10;;;;;;5088799;28;20501;-56
2021/07/12 12:46:53;;;;;;;15.77;8.50;;;14.80;90.20;;;;;;5088933;28;20085;-54
2021/07/12 12:49:25;;;;;;;13.93;8.30;;;14.80;90.20;;;;;;5088793;28;20024;-55
2021/07/12 12:52:04;;;;;;;17.45;9.23;;;14.70;90.20;;;;;;5088196;28;20551;-56
2021/07/12 12:54:36;;;;;;;15.63;8.30;;;14.70;90.30;;;;;;5088629;28;20051;-57
2021/07/12 12:57:05;;;;;;;16.65;9.38;;;14.80;90.30;;;;;;5088722;28;20031;-54
2021/07/12 12:59:35;;;;;;;14.40;8.48;;;14.70;90.30;;;;;;5088514;28;20048;-55
2021/07/12 13:02:06;;;;;;;14.48;8.27;;;14.70;90.30;;;;;;5088636;28;20466;-55
2021/07/12 13:04:49;;;;;;;13.43;7.80;;;14.70;90.40;;;;;;5088694;28;20094;-57